sensor_id;sensor_type;location;lat;lon;timestamp;temperature;humidity
34815;DHT22;21030;53.912;15.214;2023-07-31T00:02:16;36.10;30.20
34815;DHT22;21030;53.912;15.214;2023-07-31T00:04:43;35.70;30.80
34815;DHT22;21030;53.912;15.214;2023-07-31T00:07:11;35.40;31.00
34815;DHT22;21030;53.912;15.214;2023-07-31T00:09:41;35.90;30.90
34815;DHT22;21030;53.912;15.214;2023-07-31T00:12:09;35.60;30.90
34815;DHT22;21030;53.912;15.214;2023-07-31T00:14:37;35.50;31.20
34815;DHT22;21030;53.912;15.214;2023-07-31T00:17:06;35.00;31.70
34815;DHT22;21030;53.912;15.214;2023-07-31T00:19:34;35.50;31.30
34815;DHT22;21030;53.912;15.214;2023-07-31T00:22:04;36.00;30.70
34815;DHT22;21030;53.912;15.214;2023-07-31T00:24:33;36.00;30.00
34815;DHT22;21030;53.912;15.214;2023-07-31T00:27:02;36.30;29.90
34815;DHT22;21030;53.912;15.214;2023-07-31T00:29:31;35.50;30.20
34815;DHT22;21030;53.912;15.214;2023-07-31T00:32:00;34.90;30.90
34815;DHT22;21030;53.912;15.214;2023-07-31T00:34:29;34.60;31.70
34815;DHT22;21030;53.912;15.214;2023-07-31T00:36:57;34.30;31.90
34815;DHT22;21030;53.912;15.214;2023-07-31T00:39:26;34.40;32.30
34815;DHT22;21030;53.912;15.214;2023-07-31T00:41:55;33.80;32.10
34815;DHT22;21030;53.912;15.214;2023-07-31T00:44:23;33.90;32.50
34815;DHT22;21030;53.912;15.214;2023-07-31T00:46:53;34.10;32.50
34815;DHT22;21030;53.912;15.214;2023-07-31T00:49:23;34.50;32.10
34815;DHT22;21030;53.912;15.214;2023-07-31T00:51:52;35.00;31.50
34815;DHT22;21030;53.912;15.214;2023-07-31T00:54:21;35.00;31.10
34815;DHT22;21030;53.912;15.214;2023-07-31T00:56:51;34.40;31.30
34815;DHT22;21030;53.912;15.214;2023-07-31T00:59:21;34.00;31.60
34815;DHT22;21030;53.912;15.214;2023-07-31T01:01:51;34.00;31.60
34815;DHT22;21030;53.912;15.214;2023-07-31T01:04:20;33.60;32.10
34815;DHT22;21030;53.912;15.214;2023-07-31T01:12:24;33.60;32.30
34815;DHT22;21030;53.912;15.214;2023-07-31T01:15:04;33.90;32.30
34815;DHT22;21030;53.912;15.214;2023-07-31T01:17:33;33.70;32.10
34815;DHT22;21030;53.912;15.214;2023-07-31T01:20:04;34.10;31.80
34815;DHT22;21030;53.912;15.214;2023-07-31T01:23:08;33.90;32.10
34815;DHT22;21030;53.912;15.214;2023-07-31T01:26:09;33.70;32.10
34815;DHT22;21030;53.912;15.214;2023-07-31T01:31:31;33.30;32.70
34815;DHT22;21030;53.912;15.214;2023-07-31T01:34:02;33.10;32.80
34815;DHT22;21030;53.912;15.214;2023-07-31T01:36:30;33.30;33.00
34815;DHT22;21030;53.912;15.214;2023-07-31T01:39:00;33.20;32.50
34815;DHT22;21030;53.912;15.214;2023-07-31T01:41:29;33.50;32.80
34815;DHT22;21030;53.912;15.214;2023-07-31T01:43:58;33.50;32.70
34815;DHT22;21030;53.912;15.214;2023-07-31T01:46:26;32.90;32.90
34815;DHT22;21030;53.912;15.214;2023-07-31T01:48:55;32.70;33.30
34815;DHT22;21030;53.912;15.214;2023-07-31T01:51:24;33.20;33.20
34815;DHT22;21030;53.912;15.214;2023-07-31T01:53:53;33.10;32.90
34815;DHT22;21030;53.912;15.214;2023-07-31T01:56:21;33.20;32.90
34815;DHT22;21030;53.912;15.214;2023-07-31T01:58:50;33.60;32.30
34815;DHT22;21030;53.912;15.214;2023-07-31T02:01:19;33.00;33.00
34815;DHT22;21030;53.912;15.214;2023-07-31T02:03:48;32.90;33.30
34815;DHT22;21030;53.912;15.214;2023-07-31T02:06:16;32.60;33.40
34815;DHT22;21030;53.912;15.214;2023-07-31T02:08:44;32.60;33.40
34815;DHT22;21030;53.912;15.214;2023-07-31T02:11:13;33.00;33.60
34815;DHT22;21030;53.912;15.214;2023-07-31T02:13:42;33.20;33.10
34815;DHT22;21030;53.912;15.214;2023-07-31T02:16:11;33.10;33.10
34815;DHT22;21030;53.912;15.214;2023-07-31T02:18:40;33.40;33.20
34815;DHT22;21030;53.912;15.214;2023-07-31T02:21:10;33.30;32.60
34815;DHT22;21030;53.912;15.214;2023-07-31T02:23:38;33.40;32.70
34815;DHT22;21030;53.912;15.214;2023-07-31T02:26:07;33.80;32.40
34815;DHT22;21030;53.912;15.214;2023-07-31T02:28:35;33.60;32.30
34815;DHT22;21030;53.912;15.214;2023-07-31T02:31:05;33.00;32.90
34815;DHT22;21030;53.912;15.214;2023-07-31T02:33:35;32.90;33.30
34815;DHT22;21030;53.912;15.214;2023-07-31T02:36:04;32.60;33.50
34815;DHT22;21030;53.912;15.214;2023-07-31T02:38:33;32.90;33.50
34815;DHT22;21030;53.912;15.214;2023-07-31T02:41:02;33.10;33.30
34815;DHT22;21030;53.912;15.214;2023-07-31T02:43:29;33.00;33.30
34815;DHT22;21030;53.912;15.214;2023-07-31T02:45:56;32.80;33.40
34815;DHT22;21030;53.912;15.214;2023-07-31T02:48:23;32.70;34.20
34815;DHT22;21030;53.912;15.214;2023-07-31T02:50:50;33.00;33.70
34815;DHT22;21030;53.912;15.214;2023-07-31T02:53:17;33.80;32.70
34815;DHT22;21030;53.912;15.214;2023-07-31T02:55:44;33.90;31.80
34815;DHT22;21030;53.912;15.214;2023-07-31T02:58:13;33.80;32.30
34815;DHT22;21030;53.912;15.214;2023-07-31T03:00:45;34.10;32.00
34815;DHT22;21030;53.912;15.214;2023-07-31T03:03:12;34.10;31.70
34815;DHT22;21030;53.912;15.214;2023-07-31T03:05:40;34.00;31.60
34815;DHT22;21030;53.912;15.214;2023-07-31T03:08:07;34.00;31.70
34815;DHT22;21030;53.912;15.214;2023-07-31T03:10:34;34.30;31.30
34815;DHT22;21030;53.912;15.214;2023-07-31T03:13:00;34.20;31.10
34815;DHT22;21030;53.912;15.214;2023-07-31T03:15:27;34.40;32.10
34815;DHT22;21030;53.912;15.214;2023-07-31T03:17:54;34.60;30.90
34815;DHT22;21030;53.912;15.214;2023-07-31T03:20:22;35.20;30.10
34815;DHT22;21030;53.912;15.214;2023-07-31T03:22:49;35.70;29.60
34815;DHT22;21030;53.912;15.214;2023-07-31T03:25:16;36.10;29.00
34815;DHT22;21030;53.912;15.214;2023-07-31T03:27:43;36.30;28.90
34815;DHT22;21030;53.912;15.214;2023-07-31T03:30:10;36.30;28.80
34815;DHT22;21030;53.912;15.214;2023-07-31T03:32:37;36.40;28.70
34815;DHT22;21030;53.912;15.214;2023-07-31T03:35:04;36.20;28.70
34815;DHT22;21030;53.912;15.214;2023-07-31T03:37:32;36.20;28.90
34815;DHT22;21030;53.912;15.214;2023-07-31T03:39:59;35.70;29.30
34815;DHT22;21030;53.912;15.214;2023-07-31T03:42:26;35.10;29.70
34815;DHT22;21030;53.912;15.214;2023-07-31T03:44:53;34.70;30.20
34815;DHT22;21030;53.912;15.214;2023-07-31T03:47:20;34.10;31.00
34815;DHT22;21030;53.912;15.214;2023-07-31T03:49:47;34.60;30.70
34815;DHT22;21030;53.912;15.214;2023-07-31T03:52:14;34.70;30.60
34815;DHT22;21030;53.912;15.214;2023-07-31T03:54:41;34.40;31.00
34815;DHT22;21030;53.912;15.214;2023-07-31T03:57:11;34.50;30.70
34815;DHT22;21030;53.912;15.214;2023-07-31T03:59:38;34.20;31.10
34815;DHT22;21030;53.912;15.214;2023-07-31T04:02:08;34.10;31.60
34815;DHT22;21030;53.912;15.214;2023-07-31T04:04:35;33.60;32.00
34815;DHT22;21030;53.912;15.214;2023-07-31T04:07:02;33.60;31.90
34815;DHT22;21030;53.912;15.214;2023-07-31T04:09:29;33.40;32.30
34815;DHT22;21030;53.912;15.214;2023-07-31T04:11:56;32.40;33.40
34815;DHT22;21030;53.912;15.214;2023-07-31T04:14:23;32.90;33.40
34815;DHT22;21030;53.912;15.214;2023-07-31T04:16:50;33.50;32.40
34815;DHT22;21030;53.912;15.214;2023-07-31T04:19:17;33.70;32.30
34815;DHT22;21030;53.912;15.214;2023-07-31T04:21:44;33.40;32.50
34815;DHT22;21030;53.912;15.214;2023-07-31T04:24:11;33.70;32.50
34815;DHT22;21030;53.912;15.214;2023-07-31T04:26:38;33.70;32.40
34815;DHT22;21030;53.912;15.214;2023-07-31T04:29:06;34.10;32.00
34815;DHT22;21030;53.912;15.214;2023-07-31T04:31:33;34.20;31.80
34815;DHT22;21030;53.912;15.214;2023-07-31T04:34:05;34.10;31.90
34815;DHT22;21030;53.912;15.214;2023-07-31T04:36:33;34.00;31.80
34815;DHT22;21030;53.912;15.214;2023-07-31T04:39:01;33.60;32.10
34815;DHT22;21030;53.912;15.214;2023-07-31T04:41:28;33.40;32.90
34815;DHT22;21030;53.912;15.214;2023-07-31T04:43:55;33.40;32.90
34815;DHT22;21030;53.912;15.214;2023-07-31T04:46:22;33.40;32.80
34815;DHT22;21030;53.912;15.214;2023-07-31T04:48:49;33.50;32.90
34815;DHT22;21030;53.912;15.214;2023-07-31T04:51:16;33.90;32.50
34815;DHT22;21030;53.912;15.214;2023-07-31T04:53:43;34.20;31.80
34815;DHT22;21030;53.912;15.214;2023-07-31T04:56:10;33.80;31.90
34815;DHT22;21030;53.912;15.214;2023-07-31T04:58:37;33.80;32.20
34815;DHT22;21030;53.912;15.214;2023-07-31T05:01:04;34.00;32.10
34815;DHT22;21030;53.912;15.214;2023-07-31T05:03:31;33.70;32.30
34815;DHT22;21030;53.912;15.214;2023-07-31T05:05:58;33.40;32.70
34815;DHT22;21030;53.912;15.214;2023-07-31T05:08:25;33.50;32.50
34815;DHT22;21030;53.912;15.214;2023-07-31T05:10:52;33.30;33.10
34815;DHT22;21030;53.912;15.214;2023-07-31T05:13:19;34.40;32.80
34815;DHT22;21030;53.912;15.214;2023-07-31T05:15:46;34.30;32.10
34815;DHT22;21030;53.912;15.214;2023-07-31T05:18:13;34.10;32.50
34815;DHT22;21030;53.912;15.214;2023-07-31T05:20:40;33.30;33.00
34815;DHT22;21030;53.912;15.214;2023-07-31T05:23:07;33.60;33.50
34815;DHT22;21030;53.912;15.214;2023-07-31T05:25:34;33.20;33.50
34815;DHT22;21030;53.912;15.214;2023-07-31T05:28:01;33.00;33.70
34815;DHT22;21030;53.912;15.214;2023-07-31T05:30:30;32.60;34.20
34815;DHT22;21030;53.912;15.214;2023-07-31T05:32:57;31.90;35.40
34815;DHT22;21030;53.912;15.214;2023-07-31T05:35:24;32.70;35.00
34815;DHT22;21030;53.912;15.214;2023-07-31T05:37:51;32.50;34.80
34815;DHT22;21030;53.912;15.214;2023-07-31T05:40:18;32.80;34.40
34815;DHT22;21030;53.912;15.214;2023-07-31T05:42:45;33.40;33.90
34815;DHT22;21030;53.912;15.214;2023-07-31T05:45:12;33.20;33.80
34815;DHT22;21030;53.912;15.214;2023-07-31T05:47:40;33.30;33.50
34815;DHT22;21030;53.912;15.214;2023-07-31T05:50:07;33.00;33.50
34815;DHT22;21030;53.912;15.214;2023-07-31T05:52:35;32.80;34.20
34815;DHT22;21030;53.912;15.214;2023-07-31T05:55:02;32.90;34.30
34815;DHT22;21030;53.912;15.214;2023-07-31T05:57:29;34.20;33.50
34815;DHT22;21030;53.912;15.214;2023-07-31T05:59:56;34.90;32.50
34815;DHT22;21030;53.912;15.214;2023-07-31T06:02:23;34.40;32.40
34815;DHT22;21030;53.912;15.214;2023-07-31T06:04:50;34.80;32.30
34815;DHT22;21030;53.912;15.214;2023-07-31T06:07:18;35.20;31.70
34815;DHT22;21030;53.912;15.214;2023-07-31T06:09:46;35.60;31.20
34815;DHT22;21030;53.912;15.214;2023-07-31T06:12:13;35.90;31.00
34815;DHT22;21030;53.912;15.214;2023-07-31T06:14:40;35.40;30.40
34815;DHT22;21030;53.912;15.214;2023-07-31T06:17:08;35.00;31.30
34815;DHT22;21030;53.912;15.214;2023-07-31T06:19:35;34.40;31.90
34815;DHT22;21030;53.912;15.214;2023-07-31T06:22:02;34.10;31.90
34815;DHT22;21030;53.912;15.214;2023-07-31T06:24:29;33.40;32.90
34815;DHT22;21030;53.912;15.214;2023-07-31T06:26:56;33.30;33.20
34815;DHT22;21030;53.912;15.214;2023-07-31T06:29:24;34.40;33.10
34815;DHT22;21030;53.912;15.214;2023-07-31T06:31:51;35.20;32.10
34815;DHT22;21030;53.912;15.214;2023-07-31T06:34:18;35.00;31.50
34815;DHT22;21030;53.912;15.214;2023-07-31T06:36:45;34.70;31.70
34815;DHT22;21030;53.912;15.214;2023-07-31T06:39:12;34.50;32.30
34815;DHT22;21030;53.912;15.214;2023-07-31T06:41:41;33.50;32.70
34815;DHT22;21030;53.912;15.214;2023-07-31T06:44:09;33.40;33.50
34815;DHT22;21030;53.912;15.214;2023-07-31T06:46:37;34.30;32.90
34815;DHT22;21030;53.912;15.214;2023-07-31T06:49:05;34.30;32.70
34815;DHT22;21030;53.912;15.214;2023-07-31T06:51:31;35.10;32.60
34815;DHT22;21030;53.912;15.214;2023-07-31T06:54:00;36.00;31.40
34815;DHT22;21030;53.912;15.214;2023-07-31T06:56:27;36.20;30.70
34815;DHT22;21030;53.912;15.214;2023-07-31T06:58:55;35.00;31.20
34815;DHT22;21030;53.912;15.214;2023-07-31T07:01:22;34.00;32.10
34815;DHT22;21030;53.912;15.214;2023-07-31T07:03:50;33.60;33.80
34815;DHT22;21030;53.912;15.214;2023-07-31T07:06:17;34.10;33.20
34815;DHT22;21030;53.912;15.214;2023-07-31T07:08:46;34.50;33.00
34815;DHT22;21030;53.912;15.214;2023-07-31T07:11:13;34.90;31.90
34815;DHT22;21030;53.912;15.214;2023-07-31T07:13:40;34.00;32.40
34815;DHT22;21030;53.912;15.214;2023-07-31T07:16:07;34.20;33.30
34815;DHT22;21030;53.912;15.214;2023-07-31T07:18:34;34.60;32.40
34815;DHT22;21030;53.912;15.214;2023-07-31T07:21:05;34.60;32.60
34815;DHT22;21030;53.912;15.214;2023-07-31T07:23:31;35.00;32.20
34815;DHT22;21030;53.912;15.214;2023-07-31T07:25:59;35.50;31.70
34815;DHT22;21030;53.912;15.214;2023-07-31T07:28:26;35.70;30.90
34815;DHT22;21030;53.912;15.214;2023-07-31T07:30:54;34.80;31.90
34815;DHT22;21030;53.912;15.214;2023-07-31T07:33:21;35.10;31.80
34815;DHT22;21030;53.912;15.214;2023-07-31T07:35:48;35.50;31.40
34815;DHT22;21030;53.912;15.214;2023-07-31T07:38:16;34.90;31.60
34815;DHT22;21030;53.912;15.214;2023-07-31T07:40:43;34.80;31.80
34815;DHT22;21030;53.912;15.214;2023-07-31T07:43:10;34.70;32.20
34815;DHT22;21030;53.912;15.214;2023-07-31T07:45:37;34.10;32.90
34815;DHT22;21030;53.912;15.214;2023-07-31T07:48:04;34.40;32.90
34815;DHT22;21030;53.912;15.214;2023-07-31T07:50:32;34.80;32.80
34815;DHT22;21030;53.912;15.214;2023-07-31T07:52:59;35.80;31.80
34815;DHT22;21030;53.912;15.214;2023-07-31T07:55:26;36.60;30.80
34815;DHT22;21030;53.912;15.214;2023-07-31T07:57:54;37.50;29.70
34815;DHT22;21030;53.912;15.214;2023-07-31T08:00:21;38.00;28.90
34815;DHT22;21030;53.912;15.214;2023-07-31T08:02:48;37.70;29.30
34815;DHT22;21030;53.912;15.214;2023-07-31T08:05:15;37.80;28.50
34815;DHT22;21030;53.912;15.214;2023-07-31T08:07:44;37.40;28.70
34815;DHT22;21030;53.912;15.214;2023-07-31T08:10:11;37.00;29.60
34815;DHT22;21030;53.912;15.214;2023-07-31T08:12:38;37.20;29.20
34815;DHT22;21030;53.912;15.214;2023-07-31T08:15:06;36.70;29.40
34815;DHT22;21030;53.912;15.214;2023-07-31T08:17:33;36.70;29.30
34815;DHT22;21030;53.912;15.214;2023-07-31T08:20:00;36.70;29.40
34815;DHT22;21030;53.912;15.214;2023-07-31T08:22:27;37.50;29.00
34815;DHT22;21030;53.912;15.214;2023-07-31T08:24:54;37.80;28.40
34815;DHT22;21030;53.912;15.214;2023-07-31T08:27:21;38.00;28.20
34815;DHT22;21030;53.912;15.214;2023-07-31T08:29:48;37.70;28.30
34815;DHT22;21030;53.912;15.214;2023-07-31T08:32:15;37.40;28.70
34815;DHT22;21030;53.912;15.214;2023-07-31T08:34:42;37.30;28.70
34815;DHT22;21030;53.912;15.214;2023-07-31T08:37:09;36.50;29.10
34815;DHT22;21030;53.912;15.214;2023-07-31T08:39:38;36.80;29.30
34815;DHT22;21030;53.912;15.214;2023-07-31T08:42:09;36.90;29.40
34815;DHT22;21030;53.912;15.214;2023-07-31T08:44:36;36.40;29.70
34815;DHT22;21030;53.912;15.214;2023-07-31T08:47:04;36.00;29.70
34815;DHT22;21030;53.912;15.214;2023-07-31T08:49:31;34.50;31.10
34815;DHT22;21030;53.912;15.214;2023-07-31T08:51:59;35.00;31.60
34815;DHT22;21030;53.912;15.214;2023-07-31T08:54:26;35.60;31.10
34815;DHT22;21030;53.912;15.214;2023-07-31T08:56:58;36.00;30.30
34815;DHT22;21030;53.912;15.214;2023-07-31T08:59:31;36.00;30.00
34815;DHT22;21030;53.912;15.214;2023-07-31T09:02:05;36.20;29.80
34815;DHT22;21030;53.912;15.214;2023-07-31T09:04:34;36.60;29.60
34815;DHT22;21030;53.912;15.214;2023-07-31T09:07:02;36.70;29.40
34815;DHT22;21030;53.912;15.214;2023-07-31T09:09:32;36.30;29.70
34815;DHT22;21030;53.912;15.214;2023-07-31T09:11:59;36.60;29.50
34815;DHT22;21030;53.912;15.214;2023-07-31T09:14:27;36.60;29.40
34815;DHT22;21030;53.912;15.214;2023-07-31T09:16:54;35.90;29.70
34815;DHT22;21030;53.912;15.214;2023-07-31T09:19:26;35.50;30.00
34815;DHT22;21030;53.912;15.214;2023-07-31T09:21:53;35.70;30.50
34815;DHT22;21030;53.912;15.214;2023-07-31T09:24:31;36.00;30.50
34815;DHT22;21030;53.912;15.214;2023-07-31T09:27:00;35.70;30.20
34815;DHT22;21030;53.912;15.214;2023-07-31T09:29:28;35.00;30.00
34815;DHT22;21030;53.912;15.214;2023-07-31T09:31:56;35.60;30.20
34815;DHT22;21030;53.912;15.214;2023-07-31T09:34:38;36.20;30.10
34815;DHT22;21030;53.912;15.214;2023-07-31T09:37:06;36.80;29.30
34815;DHT22;21030;53.912;15.214;2023-07-31T09:39:45;37.30;28.90
34815;DHT22;21030;53.912;15.214;2023-07-31T09:42:13;36.90;28.70
34815;DHT22;21030;53.912;15.214;2023-07-31T09:44:41;36.70;28.60
34815;DHT22;21030;53.912;15.214;2023-07-31T09:47:24;35.90;29.40
34815;DHT22;21030;53.912;15.214;2023-07-31T09:49:52;35.70;29.50
34815;DHT22;21030;53.912;15.214;2023-07-31T09:52:19;35.70;29.90
34815;DHT22;21030;53.912;15.214;2023-07-31T09:54:46;36.10;29.90
34815;DHT22;21030;53.912;15.214;2023-07-31T09:57:15;35.90;29.50
34815;DHT22;21030;53.912;15.214;2023-07-31T09:59:45;36.30;29.70
34815;DHT22;21030;53.912;15.214;2023-07-31T10:02:15;36.60;29.40
34815;DHT22;21030;53.912;15.214;2023-07-31T10:04:45;37.10;28.80
34815;DHT22;21030;53.912;15.214;2023-07-31T10:07:14;37.30;28.60
34815;DHT22;21030;53.912;15.214;2023-07-31T10:09:42;36.70;28.60
34815;DHT22;21030;53.912;15.214;2023-07-31T10:12:12;35.90;29.30
34815;DHT22;21030;53.912;15.214;2023-07-31T10:14:42;36.00;29.80
34815;DHT22;21030;53.912;15.214;2023-07-31T10:17:09;36.00;29.80
34815;DHT22;21030;53.912;15.214;2023-07-31T10:19:37;36.70;29.50
34815;DHT22;21030;53.912;15.214;2023-07-31T10:22:05;37.20;28.80
34815;DHT22;21030;53.912;15.214;2023-07-31T10:24:33;37.20;28.90
34815;DHT22;21030;53.912;15.214;2023-07-31T10:27:01;36.60;29.00
34815;DHT22;21030;53.912;15.214;2023-07-31T10:29:30;35.70;29.50
34815;DHT22;21030;53.912;15.214;2023-07-31T10:31:58;35.10;30.40
34815;DHT22;21030;53.912;15.214;2023-07-31T10:34:26;35.10;30.60
34815;DHT22;21030;53.912;15.214;2023-07-31T10:40:05;36.50;30.90
34815;DHT22;21030;53.912;15.214;2023-07-31T10:42:37;37.40;29.30
34815;DHT22;21030;53.912;15.214;2023-07-31T10:45:08;38.20;28.40
34815;DHT22;21030;53.912;15.214;2023-07-31T10:47:46;39.40;27.40
34815;DHT22;21030;53.912;15.214;2023-07-31T10:50:19;39.90;26.60
34815;DHT22;21030;53.912;15.214;2023-07-31T10:52:51;39.30;26.70
34815;DHT22;21030;53.912;15.214;2023-07-31T10:55:33;39.00;27.10
34815;DHT22;21030;53.912;15.214;2023-07-31T10:58:13;38.50;26.70
34815;DHT22;21030;53.912;15.214;2023-07-31T11:00:42;38.30;26.10
34815;DHT22;21030;53.912;15.214;2023-07-31T11:03:13;38.00;26.60
34815;DHT22;21030;53.912;15.214;2023-07-31T11:05:51;36.60;27.30
34815;DHT22;21030;53.912;15.214;2023-07-31T11:08:47;36.00;28.60
34815;DHT22;21030;53.912;15.214;2023-07-31T11:11:17;35.20;29.10
34815;DHT22;21030;53.912;15.214;2023-07-31T11:16:13;35.90;29.40
34815;DHT22;21030;53.912;15.214;2023-07-31T11:18:44;35.70;28.80
34815;DHT22;21030;53.912;15.214;2023-07-31T11:21:13;34.90;29.10
34815;DHT22;21030;53.912;15.214;2023-07-31T11:23:41;35.30;29.40
34815;DHT22;21030;53.912;15.214;2023-07-31T11:26:08;35.30;29.50
34815;DHT22;21030;53.912;15.214;2023-07-31T11:28:35;35.20;29.60
34815;DHT22;21030;53.912;15.214;2023-07-31T11:31:02;35.90;28.90
34815;DHT22;21030;53.912;15.214;2023-07-31T11:33:30;35.80;28.70
34815;DHT22;21030;53.912;15.214;2023-07-31T11:35:57;35.90;28.40
34815;DHT22;21030;53.912;15.214;2023-07-31T11:38:26;35.80;28.50
34815;DHT22;21030;53.912;15.214;2023-07-31T11:40:54;36.60;28.10
34815;DHT22;21030;53.912;15.214;2023-07-31T11:43:22;37.00;27.80
34815;DHT22;21030;53.912;15.214;2023-07-31T11:45:57;37.60;27.40
34815;DHT22;21030;53.912;15.214;2023-07-31T11:48:25;37.10;27.10
34815;DHT22;21030;53.912;15.214;2023-07-31T11:50:58;36.90;27.40
34815;DHT22;21030;53.912;15.214;2023-07-31T11:53:47;37.30;27.60
34815;DHT22;21030;53.912;15.214;2023-07-31T11:56:18;37.20;27.20
34815;DHT22;21030;53.912;15.214;2023-07-31T11:58:47;36.30;27.50
34815;DHT22;21030;53.912;15.214;2023-07-31T12:01:16;36.40;28.10
34815;DHT22;21030;53.912;15.214;2023-07-31T12:03:45;36.00;28.10
34815;DHT22;21030;53.912;15.214;2023-07-31T12:06:13;36.00;28.50
34815;DHT22;21030;53.912;15.214;2023-07-31T12:08:40;35.80;28.50
34815;DHT22;21030;53.912;15.214;2023-07-31T12:11:08;35.20;29.10
34815;DHT22;21030;53.912;15.214;2023-07-31T12:13:40;35.00;29.50
34815;DHT22;21030;53.912;15.214;2023-07-31T12:16:07;34.70;29.90
34815;DHT22;21030;53.912;15.214;2023-07-31T12:18:37;34.50;30.90
34815;DHT22;21030;53.912;15.214;2023-07-31T12:21:07;34.60;31.30
34815;DHT22;21030;53.912;15.214;2023-07-31T12:23:36;35.60;31.00
34815;DHT22;21030;53.912;15.214;2023-07-31T12:28:43;36.00;29.70
34815;DHT22;21030;53.912;15.214;2023-07-31T12:31:15;36.70;29.20
34815;DHT22;21030;53.912;15.214;2023-07-31T12:33:44;36.90;28.90
34815;DHT22;21030;53.912;15.214;2023-07-31T12:36:17;36.70;28.80
34815;DHT22;21030;53.912;15.214;2023-07-31T12:38:45;37.00;28.50
34815;DHT22;21030;53.912;15.214;2023-07-31T12:41:13;37.30;27.90
34815;DHT22;21030;53.912;15.214;2023-07-31T12:43:42;37.20;28.10
34815;DHT22;21030;53.912;15.214;2023-07-31T12:46:09;37.40;28.10
34815;DHT22;21030;53.912;15.214;2023-07-31T12:48:37;38.10;28.10
34815;DHT22;21030;53.912;15.214;2023-07-31T12:51:05;37.40;28.20
34815;DHT22;21030;53.912;15.214;2023-07-31T12:53:33;36.80;28.50
34815;DHT22;21030;53.912;15.214;2023-07-31T12:56:03;36.30;29.10
34815;DHT22;21030;53.912;15.214;2023-07-31T12:58:30;35.40;29.90
34815;DHT22;21030;53.912;15.214;2023-07-31T13:00:57;34.10;32.70
34815;DHT22;21030;53.912;15.214;2023-07-31T13:03:24;32.60;37.10
34815;DHT22;21030;53.912;15.214;2023-07-31T13:05:52;31.90;40.00
34815;DHT22;21030;53.912;15.214;2023-07-31T13:08:19;32.20;39.70
34815;DHT22;21030;53.912;15.214;2023-07-31T13:10:46;32.60;39.30
34815;DHT22;21030;53.912;15.214;2023-07-31T13:13:13;32.90;39.50
34815;DHT22;21030;53.912;15.214;2023-07-31T13:15:40;33.80;38.40
34815;DHT22;21030;53.912;15.214;2023-07-31T13:18:08;34.60;37.50
34815;DHT22;21030;53.912;15.214;2023-07-31T13:20:35;35.40;36.00
34815;DHT22;21030;53.912;15.214;2023-07-31T13:23:02;34.90;36.00
34815;DHT22;21030;53.912;15.214;2023-07-31T13:25:29;35.70;35.60
34815;DHT22;21030;53.912;15.214;2023-07-31T13:27:56;35.70;34.90
34815;DHT22;21030;53.912;15.214;2023-07-31T13:30:27;36.10;34.60
34815;DHT22;21030;53.912;15.214;2023-07-31T13:32:54;36.30;34.10
34815;DHT22;21030;53.912;15.214;2023-07-31T13:35:21;35.70;34.60
34815;DHT22;21030;53.912;15.214;2023-07-31T13:37:48;35.50;35.30
34815;DHT22;21030;53.912;15.214;2023-07-31T13:40:15;35.80;34.60
34815;DHT22;21030;53.912;15.214;2023-07-31T13:42:42;35.90;34.60
34815;DHT22;21030;53.912;15.214;2023-07-31T13:45:09;36.10;34.50
34815;DHT22;21030;53.912;15.214;2023-07-31T13:47:37;35.70;34.20
34815;DHT22;21030;53.912;15.214;2023-07-31T13:50:04;34.80;35.70
34815;DHT22;21030;53.912;15.214;2023-07-31T13:52:31;35.30;35.50
34815;DHT22;21030;53.912;15.214;2023-07-31T13:54:58;34.60;36.10
34815;DHT22;21030;53.912;15.214;2023-07-31T13:57:25;34.50;35.80
34815;DHT22;21030;53.912;15.214;2023-07-31T13:59:52;35.00;35.90
34815;DHT22;21030;53.912;15.214;2023-07-31T14:02:19;34.90;36.00
34815;DHT22;21030;53.912;15.214;2023-07-31T14:04:46;34.70;35.80
34815;DHT22;21030;53.912;15.214;2023-07-31T14:07:13;34.80;36.00
34815;DHT22;21030;53.912;15.214;2023-07-31T14:09:40;35.00;35.70
34815;DHT22;21030;53.912;15.214;2023-07-31T14:12:07;34.70;35.90
34815;DHT22;21030;53.912;15.214;2023-07-31T14:14:34;34.80;36.60
34815;DHT22;21030;53.912;15.214;2023-07-31T14:17:02;35.00;36.60
34815;DHT22;21030;53.912;15.214;2023-07-31T14:19:29;34.80;36.10
34815;DHT22;21030;53.912;15.214;2023-07-31T14:21:58;35.90;35.50
34815;DHT22;21030;53.912;15.214;2023-07-31T14:24:37;36.30;34.30
34815;DHT22;21030;53.912;15.214;2023-07-31T14:27:05;37.10;34.00
34815;DHT22;21030;53.912;15.214;2023-07-31T14:29:32;36.60;33.50
34815;DHT22;21030;53.912;15.214;2023-07-31T14:31:59;36.00;34.30
34815;DHT22;21030;53.912;15.214;2023-07-31T14:34:27;36.50;34.50
34815;DHT22;21030;53.912;15.214;2023-07-31T14:36:54;36.50;34.10
34815;DHT22;21030;53.912;15.214;2023-07-31T14:39:21;36.50;33.60
34815;DHT22;21030;53.912;15.214;2023-07-31T14:41:48;35.40;34.60
34815;DHT22;21030;53.912;15.214;2023-07-31T14:44:18;34.50;36.30
34815;DHT22;21030;53.912;15.214;2023-07-31T14:46:45;34.10;36.80
34815;DHT22;21030;53.912;15.214;2023-07-31T14:49:12;34.20;37.20
34815;DHT22;21030;53.912;15.214;2023-07-31T14:51:39;33.70;36.50
34815;DHT22;21030;53.912;15.214;2023-07-31T14:54:06;33.90;37.40
34815;DHT22;21030;53.912;15.214;2023-07-31T14:56:33;34.30;36.30
34815;DHT22;21030;53.912;15.214;2023-07-31T14:59:00;34.40;35.10
34815;DHT22;21030;53.912;15.214;2023-07-31T15:01:27;34.20;35.30
34815;DHT22;21030;53.912;15.214;2023-07-31T15:03:54;34.80;35.10
34815;DHT22;21030;53.912;15.214;2023-07-31T15:06:25;34.90;34.60
34815;DHT22;21030;53.912;15.214;2023-07-31T15:08:52;33.90;35.40
34815;DHT22;21030;53.912;15.214;2023-07-31T15:11:19;33.80;35.60
34815;DHT22;21030;53.912;15.214;2023-07-31T15:13:46;33.70;35.70
34815;DHT22;21030;53.912;15.214;2023-07-31T15:16:13;34.70;35.10
34815;DHT22;21030;53.912;15.214;2023-07-31T15:18:40;35.30;34.30
34815;DHT22;21030;53.912;15.214;2023-07-31T15:21:07;35.00;34.50
34815;DHT22;21030;53.912;15.214;2023-07-31T15:23:35;34.60;34.70
34815;DHT22;21030;53.912;15.214;2023-07-31T15:26:05;33.70;36.60
34815;DHT22;21030;53.912;15.214;2023-07-31T15:28:33;34.40;35.50
34815;DHT22;21030;53.912;15.214;2023-07-31T15:31:01;35.60;34.80
34815;DHT22;21030;53.912;15.214;2023-07-31T15:33:29;36.50;33.50
34815;DHT22;21030;53.912;15.214;2023-07-31T15:35:56;36.70;33.00
34815;DHT22;21030;53.912;15.214;2023-07-31T15:38:24;36.60;33.00
34815;DHT22;21030;53.912;15.214;2023-07-31T15:40:51;36.30;32.90